Time;durP1;ratioP1;P1;durP2;ratioP2;P2;SDS_P1;SDS_P2;PMS_P1;PMS_P2;Temp;Humidity;BMP_temperature;BMP_pressure;BME280_temperature;BME280_humidity;BME280_pressure;Samples;Min_cycle;Max_cycle;Signal;HPM_P1;HPM_P2
2021/12/02 00:00:28;;;;;;;6.13;1.53;;;6.70;99.90;;;;;;5055326;28;20075;-86
2021/12/02 00:02:54;;;;;;;8.37;1.90;;;6.70;99.90;;;;;;5055568;28;20043;-87
2021/12/02 00:05:20;;;;;;;9.93;2.20;;;6.80;99.90;;;;;;5038549;28;20442;-87
2021/12/02 00:07:45;;;;;;;12.77;2.33;;;6.70;99.90;;;;;;5038670;28;20035;-86
2021/12/02 00:10:11;;;;;;;11.10;2.10;;;6.80;99.90;;;;;;5038527;28;20028;-86
2021/12/02 00:12:37;;;;;;;9.23;1.50;;;6.80;99.90;;;;;;5038593;28;20104;-86
2021/12/02 00:15:07;;;;;;;7.23;1.87;;;6.80;99.90;;;;;;5038423;28;20104;-87
2021/12/02 00:17:39;;;;;;;7.00;1.50;;;6.70;99.90;;;;;;5038798;28;20075;-86
2021/12/02 00:23:28;;;;;;;9.80;2.20;;;6.70;99.90;;;;;;5054859;28;20411;-86
2021/12/02 00:25:56;;;;;;;11.37;3.30;;;6.70;99.90;;;;;;5055107;28;20074;-86
2021/12/02 00:28:25;;;;;;;8.37;2.77;;;6.60;99.90;;;;;;5072915;28;20111;-86
2021/12/02 00:30:57;;;;;;;8.13;2.05;;;6.70;99.90;;;;;;5054791;28;20426;-86
2021/12/02 00:33:26;;;;;;;10.07;2.07;;;6.70;99.90;;;;;;5038187;28;20044;-86
2021/12/02 00:35:52;;;;;;;8.63;1.80;;;6.70;99.90;;;;;;5072476;28;20487;-86
2021/12/02 00:38:23;;;;;;;6.37;1.93;;;6.70;99.90;;;;;;5054636;28;20036;-86
2021/12/02 00:40:49;;;;;;;10.93;1.80;;;6.70;99.90;;;;;;5054615;28;20056;-86
2021/12/02 00:43:15;;;;;;;7.80;1.67;;;6.70;99.90;;;;;;5054599;28;20024;-86
2021/12/02 00:45:43;;;;;;;10.87;1.70;;;6.70;99.90;;;;;;5054451;28;20065;-86
2021/12/02 00:48:10;;;;;;;9.80;1.90;;;6.70;99.90;;;;;;5054352;28;20093;-86
2021/12/02 00:50:42;;;;;;;6.47;1.80;;;6.70;99.90;;;;;;5054744;28;20033;-87
2021/12/02 00:53:10;;;;;;;10.67;2.20;;;6.70;99.90;;;;;;5054382;28;20045;-88
2021/12/02 00:55:38;;;;;;;9.23;1.60;;;6.70;99.90;;;;;;5054024;28;20064;-86
2021/12/02 00:58:05;;;;;;;11.27;1.87;;;6.70;99.90;;;;;;5054516;28;20493;-86
2021/12/02 01:00:32;;;;;;;8.37;1.90;;;6.70;99.90;;;;;;5054201;28;20032;-86
2021/12/02 01:03:02;;;;;;;7.43;1.73;;;6.70;99.90;;;;;;5054314;28;20025;-86
2021/12/02 01:05:29;;;;;;;6.83;1.73;;;6.70;99.90;;;;;;5037845;28;20033;-86
2021/12/02 01:07:54;;;;;;;9.63;1.53;;;6.70;99.90;;;;;;5037666;28;20021;-87
2021/12/02 01:10:21;;;;;;;10.20;2.07;;;6.70;99.90;;;;;;5053967;28;20025;-87
2021/12/02 01:12:49;;;;;;;8.80;2.23;;;6.70;99.90;;;;;;5037521;28;20116;-86
2021/12/02 01:15:15;;;;;;;12.17;2.00;;;6.70;99.90;;;;;;5037359;28;20037;-86
2021/12/02 01:17:40;;;;;;;8.97;1.53;;;6.70;99.90;;;;;;5054044;28;20028;-87
2021/12/02 01:20:07;;;;;;;7.80;2.10;;;6.70;99.90;;;;;;5037337;28;20044;-87
2021/12/02 01:22:38;;;;;;;10.13;2.20;;;6.70;99.90;;;;;;5054009;28;20106;-87
2021/12/02 01:25:08;;;;;;;9.93;2.23;;;6.70;99.90;;;;;;5053805;28;20436;-86
2021/12/02 01:27:39;;;;;;;8.50;2.20;;;6.70;99.90;;;;;;5053923;28;20059;-87
2021/12/02 01:30:06;;;;;;;10.47;2.20;;;6.60;99.90;;;;;;5053831;28;20105;-86
2021/12/02 01:32:36;;;;;;;7.87;1.90;;;6.60;99.90;;;;;;5053805;28;20028;-86
2021/12/02 01:35:04;;;;;;;11.47;2.27;;;6.70;99.90;;;;;;5054043;28;20094;-86
2021/12/02 01:37:30;;;;;;;11.60;2.03;;;6.70;99.90;;;;;;5037235;28;20358;-86
2021/12/02 01:39:57;;;;;;;8.60;2.10;;;6.70;99.90;;;;;;5053400;28;20024;-86
2021/12/02 01:42:27;;;;;;;8.77;2.83;;;6.60;99.90;;;;;;5053720;28;20157;-86
2021/12/02 01:44:56;;;;;;;9.43;2.00;;;6.70;99.90;;;;;;5053295;28;20046;-86
2021/12/02 01:47:29;;;;;;;8.80;1.88;;;6.70;99.90;;;;;;5036958;28;20036;-87
2021/12/02 01:50:00;;;;;;;8.57;2.23;;;6.70;99.90;;;;;;5053472;28;20178;-86
2021/12/02 01:52:30;;;;;;;9.47;2.40;;;6.70;99.90;;;;;;5053343;28;20102;-88
2021/12/02 01:55:07;;;;;;;9.60;2.20;;;6.70;99.90;;;;;;5053208;28;20070;-87
2021/12/02 01:57:35;;;;;;;11.30;2.30;;;6.70;99.90;;;;;;5036535;28;20040;-86
2021/12/02 02:00:06;;;;;;;10.17;2.20;;;6.70;99.90;;;;;;5036651;28;20513;-87
2021/12/02 02:02:39;;;;;;;9.67;1.93;;;6.70;99.90;;;;;;5071383;28;20050;-86
2021/12/02 02:05:11;;;;;;;8.77;2.00;;;6.70;99.90;;;;;;5053236;28;20116;-86
2021/12/02 02:11:30;;;;;;;8.23;1.77;;;6.70;99.90;;;;;;5069515;28;20706;-88
2021/12/02 02:13:57;;;;;;;7.50;1.87;;;6.60;99.90;;;;;;5054128;28;20032;-87
2021/12/02 02:16:23;;;;;;;7.77;1.73;;;6.60;99.90;;;;;;5037895;28;20430;-87
2021/12/02 02:18:49;;;;;;;8.73;2.37;;;6.60;99.90;;;;;;5036979;28;20700;-86
2021/12/02 02:21:18;;;;;;;10.20;1.87;;;6.50;99.90;;;;;;5037903;28;20123;-87
2021/12/02 02:23:59;;;;;;;12.05;2.92;;;6.50;99.90;;;;;;5037700;28;20025;-87
2021/12/02 02:26:34;;;;;;;8.17;2.20;;;6.60;99.90;;;;;;5039705;28;20052;-87
2021/12/02 02:29:00;;;;;;;10.77;1.97;;;6.60;99.90;;;;;;5055538;28;20032;-87
2021/12/02 02:31:29;;;;;;;8.60;2.07;;;6.60;99.90;;;;;;5056025;28;20051;-87
2021/12/02 02:33:54;;;;;;;11.80;3.30;;;6.60;99.90;;;;;;5055560;28;20028;-87
2021/12/02 02:36:23;;;;;;;12.40;2.80;;;6.50;99.90;;;;;;5039414;28;20043;-87
2021/12/02 02:38:56;;;;;;;7.53;2.60;;;6.50;99.90;;;;;;5055373;28;20108;-87
2021/12/02 02:41:25;;;;;;;8.73;2.00;;;6.60;99.90;;;;;;5056011;28;20041;-87
2021/12/02 02:43:55;;;;;;;7.30;2.23;;;6.50;99.90;;;;;;5039221;28;20043;-87
2021/12/02 02:46:26;;;;;;;9.03;2.10;;;6.50;99.90;;;;;;5056153;28;20258;-87
2021/12/02 02:48:52;;;;;;;7.57;1.90;;;6.50;99.90;;;;;;5055269;28;20371;-87
2021/12/02 02:51:19;;;;;;;7.73;2.07;;;6.50;99.90;;;;;;5039498;28;20086;-87
2021/12/02 02:53:53;;;;;;;6.73;1.40;;;6.40;99.90;;;;;;5055732;28;20048;-86
2021/12/02 02:56:26;;;;;;;6.13;1.63;;;6.40;99.90;;;;;;5039038;28;20028;-87
2021/12/02 02:59:32;;;;;;;8.77;1.67;;;6.40;99.90;;;;;;5055578;28;20417;-88
2021/12/02 03:10:02;;;;;;;10.07;2.63;;;6.30;99.90;;;;;;5056113;28;20051;-87
2021/12/02 03:17:26;;;;;;;40.75;10.20;;;6.30;99.90;;;;;;5073621;28;20387;-88
2021/12/02 03:19:52;;;;;;;27.80;6.90;;;6.20;99.90;;;;;;5055636;28;20063;-86
2021/12/02 03:22:17;;;;;;;21.30;6.23;;;6.20;99.90;;;;;;5039306;28;20072;-86
2021/12/02 03:24:44;;;;;;;12.03;2.53;;;6.30;99.90;;;;;;5054573;28;20507;-86
2021/12/02 03:27:10;;;;;;;6.83;1.50;;;6.30;99.90;;;;;;5055981;28;20023;-86
2021/12/02 03:29:36;;;;;;;8.93;2.00;;;6.30;99.90;;;;;;5039623;28;20351;-86
2021/12/02 03:32:02;;;;;;;7.27;1.97;;;6.30;99.90;;;;;;5056049;28;20039;-86
2021/12/02 03:34:28;;;;;;;6.73;1.40;;;6.30;99.90;;;;;;5055926;28;20029;-86
2021/12/02 03:36:54;;;;;;;5.27;1.77;;;6.30;99.90;;;;;;5039288;28;20454;-87
2021/12/02 03:39:20;;;;;;;6.43;1.47;;;6.30;99.90;;;;;;5039602;28;20032;-86
2021/12/02 03:41:46;;;;;;;7.20;1.90;;;6.30;99.90;;;;;;5055736;28;20377;-86
2021/12/02 03:44:12;;;;;;;11.53;1.70;;;6.30;99.90;;;;;;5039356;28;20033;-86
2021/12/02 03:46:40;;;;;;;8.23;1.80;;;6.20;99.90;;;;;;5039345;28;20031;-86
2021/12/02 03:49:06;;;;;;;6.20;1.40;;;6.20;99.90;;;;;;5056089;28;20064;-86
2021/12/02 03:51:32;;;;;;;7.30;1.37;;;6.20;99.90;;;;;;5039425;28;20025;-86
2021/12/02 03:53:59;;;;;;;6.23;1.40;;;6.20;99.90;;;;;;5075079;28;20036;-85
2021/12/02 03:56:26;;;;;;;7.53;1.63;;;6.20;99.90;;;;;;5056526;28;20480;-86
2021/12/02 03:58:52;;;;;;;6.87;1.43;;;6.20;99.90;;;;;;5038596;28;20130;-86
2021/12/02 04:01:19;;;;;;;7.43;1.33;;;6.20;99.90;;;;;;5055486;28;20033;-89
2021/12/02 04:03:46;;;;;;;6.67;1.50;;;6.10;99.90;;;;;;5074029;28;20524;-86
2021/12/02 04:06:12;;;;;;;5.77;1.60;;;6.00;99.90;;;;;;5040285;28;20033;-86
2021/12/02 04:08:54;;;;;;;9.17;1.60;;;6.00;99.90;;;;;;5039814;28;20025;-86
2021/12/02 04:16:33;;;;;;;8.30;1.50;;;6.00;99.90;;;;;;5055459;28;20032;-87
2021/12/02 04:18:59;;;;;;;6.40;1.37;;;5.90;99.90;;;;;;5038367;28;20108;-86
2021/12/02 04:21:25;;;;;;;5.33;1.20;;;5.90;99.90;;;;;;5054722;28;20094;-86
2021/12/02 04:24:15;;;;;;;5.10;1.13;;;5.90;99.90;;;;;;5037757;28;20029;-86
2021/12/02 04:26:42;;;;;;;6.20;1.30;;;5.90;99.90;;;;;;5054605;28;20020;-86
2021/12/02 04:29:09;;;;;;;6.10;1.23;;;5.90;99.90;;;;;;5038003;28;20075;-88
2021/12/02 04:31:35;;;;;;;4.27;1.10;;;5.90;99.90;;;;;;5038134;28;20074;-85
2021/12/02 04:34:00;;;;;;;5.87;1.50;;;5.90;99.90;;;;;;5054255;28;20032;-87
2021/12/02 04:36:26;;;;;;;5.60;1.17;;;5.80;99.90;;;;;;5037205;28;20103;-86
2021/12/02 04:38:52;;;;;;;5.47;1.00;;;5.80;99.90;;;;;;5037461;28;20586;-86
2021/12/02 04:41:18;;;;;;;4.70;0.80;;;5.80;99.90;;;;;;5072062;28;20032;-86
2021/12/02 04:43:44;;;;;;;4.23;1.10;;;5.80;99.90;;;;;;5037334;28;20441;-86
2021/12/02 04:46:10;;;;;;;4.63;0.70;;;5.80;99.90;;;;;;5037539;28;20071;-86
2021/12/02 04:48:36;;;;;;;5.10;0.93;;;5.80;99.90;;;;;;5054064;28;20020;-86
2021/12/02 04:51:01;;;;;;;4.57;1.00;;;5.70;99.90;;;;;;5054016;28;20035;-86
2021/12/02 04:53:27;;;;;;;4.10;0.97;;;5.70;99.90;;;;;;5072098;28;20040;-86
2021/12/02 04:55:53;;;;;;;4.37;0.90;;;5.70;99.90;;;;;;5037304;28;20469;-89
2021/12/02 04:58:19;;;;;;;1.87;0.83;;;5.70;99.90;;;;;;5037436;28;20119;-86
2021/12/02 05:00:44;;;;;;;6.33;1.60;;;5.70;99.90;;;;;;5037573;28;20396;-87
2021/12/02 05:03:10;;;;;;;2.80;0.90;;;5.70;99.90;;;;;;5054431;28;20028;-86
2021/12/02 05:05:36;;;;;;;6.00;1.50;;;5.70;99.90;;;;;;5037650;28;20174;-87
2021/12/02 05:08:04;;;;;;;5.40;1.10;;;5.60;99.90;;;;;;5037781;28;20039;-86
2021/12/02 05:10:30;;;;;;;4.50;1.00;;;5.70;99.90;;;;;;5037371;28;20036;-86
2021/12/02 05:12:56;;;;;;;4.47;0.97;;;5.80;99.90;;;;;;5053804;28;20338;-86
2021/12/02 05:15:22;;;;;;;4.10;1.10;;;5.70;99.90;;;;;;5036851;28;20047;-89
2021/12/02 05:17:48;;;;;;;3.37;1.27;;;5.70;99.90;;;;;;5053594;28;20031;-86
2021/12/02 05:20:14;;;;;;;4.60;1.43;;;5.70;99.90;;;;;;5037633;28;20024;-92
2021/12/02 05:22:40;;;;;;;2.67;1.20;;;5.70;99.90;;;;;;5037236;28;20036;-85
2021/12/02 05:25:06;;;;;;;3.93;1.20;;;5.70;99.90;;;;;;5037023;28;20025;-85
2021/12/02 05:27:32;;;;;;;2.70;0.90;;;5.70;99.90;;;;;;5053582;28;20035;-87
2021/12/02 05:29:58;;;;;;;8.80;1.47;;;5.70;99.90;;;;;;5037398;28;20028;-87
2021/12/02 05:32:24;;;;;;;4.37;1.50;;;5.70;99.90;;;;;;5053550;28;20056;-86
2021/12/02 05:34:51;;;;;;;5.97;1.70;;;5.70;99.90;;;;;;5053214;28;20035;-85
2021/12/02 05:37:17;;;;;;;5.23;1.40;;;5.70;99.90;;;;;;5036050;28;20119;-86
2021/12/02 05:39:44;;;;;;;3.90;1.47;;;5.70;99.90;;;;;;5052858;28;20043;-85
2021/12/02 05:42:10;;;;;;;3.60;1.10;;;5.60;99.90;;;;;;5053143;28;20139;-85
2021/12/02 05:44:36;;;;;;;5.80;1.77;;;5.60;99.90;;;;;;5036455;28;20027;-86
2021/12/02 05:47:02;;;;;;;6.10;1.77;;;5.70;99.90;;;;;;5050423;28;20028;-86
2021/12/02 05:49:27;;;;;;;4.23;1.63;;;5.70;99.90;;;;;;5051421;28;20369;-84
2021/12/02 05:51:54;;;;;;;5.47;1.33;;;5.70;99.90;;;;;;5051255;28;20043;-85
2021/12/02 05:54:20;;;;;;;4.97;2.10;;;5.60;99.90;;;;;;5034754;28;20456;-85
2021/12/02 05:56:46;;;;;;;8.13;1.77;;;5.60;99.90;;;;;;5069509;28;20381;-84
2021/12/02 05:59:12;;;;;;;7.47;2.00;;;5.60;99.90;;;;;;5070873;28;20135;-84
2021/12/02 06:01:42;;;;;;;6.57;2.03;;;5.60;99.90;;;;;;5052756;28;20032;-84
2021/12/02 06:04:09;;;;;;;6.80;2.30;;;5.60;99.90;;;;;;5036293;28;20036;-85
2021/12/02 06:06:34;;;;;;;4.47;2.30;;;5.60;99.90;;;;;;5036360;28;20027;-84
2021/12/02 06:09:02;;;;;;;4.63;2.10;;;5.60;99.90;;;;;;5036736;28;20074;-86
2021/12/02 06:11:28;;;;;;;6.73;2.17;;;5.60;99.90;;;;;;5038241;28;20128;-86
2021/12/02 06:13:54;;;;;;;7.73;1.90;;;5.50;99.90;;;;;;5054767;28;20401;-85
2021/12/02 06:16:23;;;;;;;5.23;1.90;;;5.50;99.90;;;;;;5038624;28;20131;-84
2021/12/02 06:18:49;;;;;;;4.10;1.80;;;5.50;99.90;;;;;;5037143;28;20029;-84
2021/12/02 06:21:17;;;;;;;4.67;1.87;;;5.50;99.90;;;;;;5054486;28;20090;-84
2021/12/02 06:23:43;;;;;;;6.87;1.70;;;5.50;99.90;;;;;;5037636;28;20032;-85
2021/12/02 06:26:10;;;;;;;8.00;1.90;;;5.50;99.90;;;;;;5054617;28;20048;-84
2021/12/02 06:28:36;;;;;;;7.37;2.07;;;5.50;99.90;;;;;;5037359;28;20032;-84
2021/12/02 06:31:02;;;;;;;7.07;2.93;;;5.50;99.90;;;;;;5038129;28;20086;-86
2021/12/02 06:33:32;;;;;;;8.23;2.93;;;5.50;99.90;;;;;;5036744;28;20489;-86
2021/12/02 06:36:01;;;;;;;6.47;2.10;;;5.50;99.90;;;;;;5040032;28;20083;-89
2021/12/02 06:38:30;;;;;;;4.80;1.90;;;5.50;99.90;;;;;;5037082;28;20031;-87
2021/12/02 06:40:56;;;;;;;6.37;2.80;;;5.50;99.90;;;;;;5053292;28;20036;-88
2021/12/02 06:43:22;;;;;;;8.07;2.13;;;5.40;99.90;;;;;;5037158;28;20032;-87
2021/12/02 06:45:49;;;;;;;8.67;2.50;;;5.40;99.90;;;;;;5054475;28;20039;-85
2021/12/02 06:48:15;;;;;;;6.53;2.43;;;5.40;99.90;;;;;;5038589;28;20028;-84
2021/12/02 06:50:43;;;;;;;9.47;2.43;;;5.40;99.90;;;;;;5038361;28;20127;-86
2021/12/02 06:53:08;;;;;;;6.63;2.23;;;5.40;99.90;;;;;;5053562;28;20098;-90
2021/12/02 06:55:34;;;;;;;10.67;2.87;;;5.40;99.90;;;;;;5037039;28;20036;-87
2021/12/02 06:58:00;;;;;;;6.13;2.33;;;5.40;99.90;;;;;;5037074;28;20516;-83
2021/12/02 07:00:26;;;;;;;9.60;2.30;;;5.40;99.90;;;;;;5041411;28;20122;-84
2021/12/02 07:02:52;;;;;;;8.37;2.37;;;5.40;99.90;;;;;;5041381;28;20033;-84
2021/12/02 07:05:18;;;;;;;10.00;3.33;;;5.40;99.90;;;;;;5056725;28;20056;-86
2021/12/02 07:07:46;;;;;;;8.83;3.40;;;5.40;99.90;;;;;;5040394;28;20048;-85
2021/12/02 07:10:22;;;;;;;15.10;4.10;;;5.40;99.90;;;;;;5040039;28;20043;-85
2021/12/02 07:12:56;;;;;;;12.80;3.33;;;5.40;99.90;;;;;;5056516;28;20381;-86
2021/12/02 07:15:30;;;;;;;12.37;3.70;;;5.50;99.90;;;;;;5039782;28;20046;-86
2021/12/02 07:17:57;;;;;;;13.13;4.10;;;5.40;99.90;;;;;;5040925;28;20032;-86
2021/12/02 07:20:25;;;;;;;13.43;3.73;;;5.40;99.90;;;;;;5056199;28;20517;-85
2021/12/02 07:22:51;;;;;;;14.23;4.20;;;5.40;99.90;;;;;;5056330;28;20028;-86
2021/12/02 07:25:17;;;;;;;12.87;3.87;;;5.40;99.90;;;;;;5039717;28;20393;-86
2021/12/02 07:27:47;;;;;;;10.53;2.77;;;5.40;99.90;;;;;;5055966;28;20043;-91
2021/12/02 07:30:14;;;;;;;6.73;2.10;;;5.40;99.90;;;;;;5039835;28;20550;-85
2021/12/02 07:32:40;;;;;;;8.43;2.03;;;5.40;99.90;;;;;;5074001;28;20033;-87
2021/12/02 07:35:15;;;;;;;8.27;1.80;;;5.40;99.90;;;;;;5055845;28;20036;-84
2021/12/02 07:37:47;;;;;;;3.63;1.50;;;5.30;99.90;;;;;;5043937;28;20028;-84
2021/12/02 07:40:15;;;;;;;9.53;2.37;;;5.30;99.90;;;;;;5077393;28;20044;-83
2021/12/02 07:42:40;;;;;;;7.70;2.13;;;5.30;99.90;;;;;;5057336;28;20082;-86
2021/12/02 07:45:08;;;;;;;6.43;1.93;;;5.30;99.90;;;;;;5057427;28;20028;-83
2021/12/02 07:47:34;;;;;;;5.43;2.23;;;5.30;99.90;;;;;;5057251;28;20031;-82
2021/12/02 07:50:00;;;;;;;4.47;1.90;;;5.30;99.90;;;;;;5040597;28;20037;-84
2021/12/02 07:52:26;;;;;;;7.60;2.07;;;5.30;99.90;;;;;;5057884;28;20028;-84
2021/12/02 07:54:55;;;;;;;4.60;1.50;;;5.40;99.90;;;;;;5040962;28;20033;-84
2021/12/02 07:57:21;;;;;;;5.10;1.67;;;5.40;99.90;;;;;;5057703;28;20433;-84
2021/12/02 07:59:52;;;;;;;7.07;1.87;;;5.40;99.90;;;;;;5039973;28;20032;-83
2021/12/02 08:02:18;;;;;;;4.63;1.40;;;5.40;99.90;;;;;;5039722;28;20036;-81
2021/12/02 08:04:44;;;;;;;5.93;1.70;;;5.40;99.90;;;;;;5055672;28;20063;-81
2021/12/02 08:07:10;;;;;;;8.73;2.13;;;5.50;99.90;;;;;;5056610;28;20024;-81
2021/12/02 08:09:36;;;;;;;5.13;1.67;;;5.40;99.90;;;;;;5055138;28;20162;-87
2021/12/02 08:12:03;;;;;;;6.27;1.97;;;5.50;99.90;;;;;;5040185;28;20092;-83
2021/12/02 08:14:30;;;;;;;6.63;1.80;;;5.40;99.90;;;;;;5056647;28;20029;-85
2021/12/02 08:16:56;;;;;;;4.70;1.67;;;5.40;99.90;;;;;;5040050;28;20055;-83
2021/12/02 08:19:22;;;;;;;7.13;1.77;;;5.40;99.90;;;;;;5055373;28;20024;-83
2021/12/02 08:21:48;;;;;;;11.70;2.07;;;5.30;99.90;;;;;;5039539;28;20033;-85
2021/12/02 08:24:14;;;;;;;8.20;1.90;;;5.30;99.90;;;;;;5039407;28;20036;-84
2021/12/02 08:26:40;;;;;;;9.03;3.23;;;5.20;99.90;;;;;;5040441;28;20397;-84
2021/12/02 08:29:06;;;;;;;7.77;2.23;;;5.50;99.90;;;;;;5039403;28;20029;-86
2021/12/02 08:31:33;;;;;;;9.33;2.10;;;5.70;99.90;;;;;;5056703;28;20548;-83
2021/12/02 08:33:59;;;;;;;7.67;2.00;;;5.60;99.90;;;;;;5055721;28;20036;-85
2021/12/02 08:36:29;;;;;;;17.07;2.40;;;5.60;99.90;;;;;;5074511;28;20036;-84
2021/12/02 08:38:56;;;;;;;5.90;1.67;;;5.70;99.90;;;;;;5073080;28;20044;-85
2021/12/02 08:41:22;;;;;;;5.03;1.37;;;5.80;99.90;;;;;;5056779;28;20131;-85
2021/12/02 08:43:48;;;;;;;5.53;1.13;;;5.70;99.90;;;;;;5056905;28;20109;-85
2021/12/02 08:46:15;;;;;;;5.37;1.70;;;5.50;99.90;;;;;;5055973;28;20032;-84
2021/12/02 08:48:41;;;;;;;3.87;1.50;;;5.40;99.90;;;;;;5037873;28;20024;-84
2021/12/02 08:51:07;;;;;;;3.07;1.33;;;5.40;99.90;;;;;;5064180;28;20038;-82
2021/12/02 08:53:33;;;;;;;3.67;1.70;;;5.30;99.90;;;;;;5075687;28;20040;-81
2021/12/02 08:55:59;;;;;;;4.13;1.37;;;5.30;99.90;;;;;;5076895;28;20043;-85
2021/12/02 08:58:24;;;;;;;1.93;1.30;;;5.20;99.90;;;;;;5078626;28;20059;-85
2021/12/02 09:00:50;;;;;;;2.80;1.00;;;5.30;99.90;;;;;;5064119;28;20032;-86
2021/12/02 09:03:16;;;;;;;3.80;1.17;;;5.30;99.90;;;;;;5081699;28;20031;-86
2021/12/02 09:05:43;;;;;;;3.23;1.10;;;5.30;99.90;;;;;;5066176;28;20469;-85
2021/12/02 09:08:09;;;;;;;3.50;0.90;;;5.20;99.90;;;;;;5066669;28;20039;-86
2021/12/02 09:10:37;;;;;;;5.80;1.20;;;5.20;99.90;;;;;;5083557;28;20536;-85
2021/12/02 09:13:08;;;;;;;2.87;1.00;;;5.10;99.90;;;;;;5082160;28;20131;-86
2021/12/02 09:15:36;;;;;;;3.07;1.40;;;5.20;99.90;;;;;;5066679;28;20040;-86
2021/12/02 09:18:02;;;;;;;6.07;2.33;;;5.20;99.90;;;;;;5082982;28;20503;-86
2021/12/02 09:20:28;;;;;;;3.17;1.40;;;5.20;99.90;;;;;;5083249;28;20099;-86
2021/12/02 09:22:53;;;;;;;7.53;1.60;;;5.10;99.90;;;;;;5067067;28;20401;-86
2021/12/02 09:25:19;;;;;;;5.00;1.60;;;5.10;99.90;;;;;;5084068;28;20055;-85
2021/12/02 09:27:46;;;;;;;5.83;2.47;;;5.10;99.90;;;;;;5083504;28;20032;-86
2021/12/02 09:30:12;;;;;;;5.83;2.47;;;5.00;99.90;;;;;;5083425;28;20024;-85
2021/12/02 09:32:39;;;;;;;5.80;2.63;;;5.00;99.90;;;;;;5084099;28;20438;-87
2021/12/02 09:35:06;;;;;;;7.03;2.57;;;5.10;99.90;;;;;;5084288;28;20032;-86
2021/12/02 09:37:32;;;;;;;5.50;2.30;;;5.00;99.90;;;;;;5084147;28;20400;-87
2021/12/02 09:39:58;;;;;;;4.23;2.20;;;5.10;99.90;;;;;;5084233;28;20035;-86
2021/12/02 09:42:25;;;;;;;4.77;1.80;;;5.10;99.90;;;;;;5067525;28;20036;-86
2021/12/02 09:44:55;;;;;;;3.63;1.80;;;5.10;99.90;;;;;;5067107;28;20053;-86
2021/12/02 09:47:22;;;;;;;5.43;2.20;;;5.20;99.90;;;;;;5084247;28;20039;-86
2021/12/02 09:49:49;;;;;;;3.77;1.73;;;5.20;99.90;;;;;;5084580;28;20028;-87
2021/12/02 09:52:17;;;;;;;4.00;1.80;;;5.30;99.90;;;;;;5067509;28;20032;-87
2021/12/02 09:54:55;;;;;;;8.07;2.00;;;5.30;99.90;;;;;;5068182;28;20032;-87
2021/12/02 09:57:25;;;;;;;4.90;2.03;;;5.30;99.90;;;;;;5084461;28;20035;-86
2021/12/02 09:59:53;;;;;;;4.50;1.87;;;5.40;99.90;;;;;;5082389;28;20032;-86
2021/12/02 10:02:20;;;;;;;3.93;1.97;;;5.30;99.90;;;;;;5079156;28;20103;-86
2021/12/02 10:07:44;;;;;;;4.72;2.05;;;5.40;99.90;;;;;;5078739;28;20545;-86
2021/12/02 10:10:34;;;;;;;6.63;2.00;;;5.40;99.90;;;;;;5069264;28;20039;-85
2021/12/02 10:13:32;;;;;;;4.13;1.90;;;5.40;99.90;;;;;;5059299;28;20469;-85
2021/12/02 10:16:24;;;;;;;7.22;2.67;;;5.50;99.90;;;;;;5075504;28;20051;-85
2021/12/02 10:21:29;;;;;;;6.20;2.30;;;5.50;99.90;;;;;;5092079;28;20024;-85
2021/12/02 10:24:00;;;;;;;5.40;2.30;;;5.50;99.90;;;;;;5073944;28;20040;-85
2021/12/02 10:26:26;;;;;;;4.90;2.10;;;5.40;99.90;;;;;;5073957;28;20028;-85
2021/12/02 10:28:52;;;;;;;5.50;1.90;;;5.40;99.90;;;;;;5073699;28;20039;-86
2021/12/02 10:31:22;;;;;;;6.37;2.00;;;5.40;99.90;;;;;;5074115;28;20028;-85
2021/12/02 10:33:58;;;;;;;6.57;2.93;;;5.40;99.90;;;;;;5075953;28;20477;-85
2021/12/02 10:36:39;;;;;;;9.47;3.13;;;5.40;99.90;;;;;;5077933;28;20039;-85
2021/12/02 10:39:17;;;;;;;8.00;2.90;;;5.40;99.90;;;;;;5077687;28;20542;-85
2021/12/02 10:41:45;;;;;;;8.97;2.77;;;5.40;99.90;;;;;;5077991;28;20035;-84
2021/12/02 10:44:17;;;;;;;9.37;3.23;;;5.40;99.90;;;;;;5077754;28;20039;-85
2021/12/02 10:47:02;;;;;;;14.60;4.50;;;5.40;99.90;;;;;;5095684;28;20057;-85
2021/12/02 10:49:32;;;;;;;10.50;2.93;;;5.40;99.90;;;;;;5077666;28;20477;-86
2021/12/02 10:52:02;;;;;;;12.07;3.15;;;5.40;99.90;;;;;;5077734;28;20036;-85
2021/12/02 10:54:35;;;;;;;8.50;2.83;;;5.40;99.90;;;;;;5077595;28;20024;-86
2021/12/02 10:57:11;;;;;;;6.97;2.37;;;5.40;99.90;;;;;;5077509;28;20119;-85
2021/12/02 10:59:43;;;;;;;7.40;1.90;;;5.50;99.90;;;;;;5077398;28;20469;-86
2021/12/02 11:02:30;;;;;;;6.83;2.03;;;5.50;99.90;;;;;;5078014;28;20111;-86
2021/12/02 11:05:04;;;;;;;13.30;2.50;;;5.50;99.90;;;;;;5096238;28;20466;-86
2021/12/02 11:07:35;;;;;;;7.07;1.63;;;5.50;99.90;;;;;;5060778;28;20145;-84
2021/12/02 11:10:06;;;;;;;5.60;2.00;;;5.50;99.90;;;;;;5060821;28;20040;-85
2021/12/02 11:12:44;;;;;;;9.40;2.10;;;5.60;99.90;;;;;;5077191;28;20131;-85
2021/12/02 11:15:29;;;;;;;8.57;2.27;;;5.60;99.90;;;;;;5077234;28;20489;-84
2021/12/02 11:17:57;;;;;;;8.37;2.40;;;5.60;99.90;;;;;;5076927;28;20028;-85
2021/12/02 11:20:31;;;;;;;5.07;1.20;;;5.60;99.90;;;;;;5077171;28;20039;-85
2021/12/02 11:23:06;;;;;;;7.33;2.00;;;5.50;99.90;;;;;;5077343;28;20028;-86
2021/12/02 11:25:37;;;;;;;10.87;2.43;;;5.50;99.90;;;;;;5065180;28;20047;-86
2021/12/02 11:28:05;;;;;;;9.07;2.33;;;5.50;99.90;;;;;;5082276;28;20024;-85
2021/12/02 11:30:31;;;;;;;3.47;1.40;;;5.50;99.90;;;;;;5082257;28;20024;-85
2021/12/02 11:32:59;;;;;;;4.37;1.13;;;5.60;99.90;;;;;;5081854;28;20262;-86
2021/12/02 11:35:27;;;;;;;4.27;1.40;;;5.60;99.90;;;;;;5064851;28;20035;-86
2021/12/02 11:38:04;;;;;;;6.47;1.97;;;5.60;99.90;;;;;;5064753;28;20024;-86
2021/12/02 11:40:38;;;;;;;4.73;1.37;;;5.70;99.90;;;;;;5081388;28;20266;-86
2021/12/02 11:43:05;;;;;;;4.80;1.30;;;5.70;99.90;;;;;;5065335;28;20036;-86
2021/12/02 11:45:33;;;;;;;4.43;1.40;;;5.60;99.90;;;;;;5064905;28;20030;-86
2021/12/02 11:47:59;;;;;;;5.73;1.90;;;5.60;99.90;;;;;;5065083;28;20025;-86
2021/12/02 11:50:27;;;;;;;9.67;2.07;;;5.70;99.90;;;;;;5066320;28;20397;-86
2021/12/02 11:52:53;;;;;;;6.07;1.87;;;5.60;99.90;;;;;;5082935;28;20568;-86
2021/12/02 11:55:29;;;;;;;4.67;1.67;;;5.60;99.90;;;;;;5082116;28;20124;-86
2021/12/02 11:57:56;;;;;;;4.30;1.13;;;5.60;99.90;;;;;;5081632;28;20042;-86
2021/12/02 12:00:25;;;;;;;6.67;1.57;;;5.60;99.90;;;;;;5082237;28;20036;-86
2021/12/02 12:03:21;;;;;;;4.60;1.10;;;5.70;99.90;;;;;;5082524;28;20036;-86
2021/12/02 12:06:01;;;;;;;2.60;0.80;;;5.60;99.90;;;;;;5082742;28;20064;-86
2021/12/02 12:08:45;;;;;;;4.90;1.20;;;5.60;99.90;;;;;;5082789;28;20054;-87
2021/12/02 12:11:22;;;;;;;3.13;1.10;;;5.50;99.90;;;;;;5083089;28;20032;-86
2021/12/02 12:13:49;;;;;;;4.33;1.07;;;5.50;99.90;;;;;;5066694;28;20039;-86
2021/12/02 12:16:30;;;;;;;3.97;1.00;;;5.50;99.90;;;;;;5083211;28;20039;-86
2021/12/02 12:19:13;;;;;;;3.47;0.93;;;5.50;99.90;;;;;;5087411;28;20032;-86
2021/12/02 12:21:42;;;;;;;4.40;1.00;;;5.50;99.90;;;;;;5061066;28;20115;-86
2021/12/02 12:24:08;;;;;;;3.83;1.37;;;5.50;99.90;;;;;;5061322;28;20043;-86
2021/12/02 12:26:37;;;;;;;5.77;1.03;;;5.40;99.90;;;;;;5077924;28;20028;-85
2021/12/02 12:29:06;;;;;;;3.20;1.30;;;5.40;99.90;;;;;;5078473;28;20031;-86
2021/12/02 12:31:35;;;;;;;4.15;1.48;;;5.40;99.90;;;;;;5077861;28;20024;-85
2021/12/02 12:34:19;;;;;;;1.98;1.00;;;5.40;99.90;;;;;;5061649;28;20039;-85
2021/12/02 12:36:46;;;;;;;1.80;0.90;;;5.40;99.90;;;;;;5077755;28;20503;-85
2021/12/02 12:39:23;;;;;;;5.10;0.93;;;5.40;99.90;;;;;;5061597;28;20032;-85
2021/12/02 12:42:17;;;;;;;3.30;1.10;;;5.40;99.90;;;;;;5078479;28;20425;-86
2021/12/02 12:44:47;;;;;;;5.30;1.50;;;5.50;99.90;;;;;;5060938;28;20119;-85
2021/12/02 12:47:13;;;;;;;5.43;1.77;;;5.40;99.90;;;;;;5061189;28;20028;-86
2021/12/02 12:49:39;;;;;;;5.63;1.60;;;5.40;99.90;;;;;;5060982;28;20047;-85
2021/12/02 12:52:18;;;;;;;4.30;1.27;;;5.40;99.90;;;;;;5060803;28;20028;-86
2021/12/02 12:55:16;;;;;;;2.27;0.90;;;5.40;99.90;;;;;;5061102;28;20043;-85
2021/12/02 12:58:13;;;;;;;4.20;1.67;;;5.40;99.90;;;;;;5060297;28;20028;-85
2021/12/02 13:00:40;;;;;;;4.60;1.37;;;5.40;99.90;;;;;;5060811;28;20500;-85
2021/12/02 13:03:16;;;;;;;3.47;1.50;;;5.40;99.90;;;;;;5059812;28;20035;-85
2021/12/02 13:05:47;;;;;;;4.10;1.10;;;5.50;99.90;;;;;;5077069;28;20119;-85
2021/12/02 13:08:19;;;;;;;3.57;1.30;;;5.50;99.90;;;;;;5077913;28;20028;-85
2021/12/02 13:11:16;;;;;;;2.90;0.83;;;5.50;99.90;;;;;;5077697;28;20431;-85
2021/12/02 13:13:44;;;;;;;6.60;1.53;;;5.50;99.90;;;;;;5062076;28;20076;-85
2021/12/02 13:16:30;;;;;;;4.57;1.90;;;5.60;99.90;;;;;;5077751;28;20032;-85
2021/12/02 13:18:59;;;;;;;5.00;1.87;;;5.50;99.90;;;;;;5060531;28;20458;-86
2021/12/02 13:21:29;;;;;;;7.25;1.73;;;5.50;99.90;;;;;;5078011;28;20545;-85
2021/12/02 13:24:14;;;;;;;6.57;2.27;;;5.40;99.90;;;;;;5078357;28;20089;-85
2021/12/02 13:26:43;;;;;;;5.97;2.10;;;5.40;99.90;;;;;;5078127;28;20039;-85
2021/12/02 13:29:15;;;;;;;5.57;2.20;;;5.40;99.90;;;;;;5095483;28;20024;-85
2021/12/02 13:31:47;;;;;;;3.20;1.67;;;5.40;99.90;;;;;;5076483;28;20477;-85
2021/12/02 13:34:14;;;;;;;3.93;1.20;;;5.40;99.90;;;;;;5094205;28;20028;-85
2021/12/02 13:36:44;;;;;;;3.33;1.30;;;5.40;99.90;;;;;;5076755;28;20396;-85